Terminal Aerodrome Forecast
Issued by NWS

Home | Current Version | Previous Version | Graphics & Text | Print | Product List | Glossary On
Versions: 1 2 3 4 5 6 7 8 9 10 11 12 13 14 15 16 17 18 19 20 21 22 23 24 25 26 27 28 29 30 31 32 33 34 35 36
000
FTUS43 KLOT 162000 AAB
TAFORD
TAF AMD
KORD 162005Z 1620/1724 30017G27KT 5SM -SHRA BR BKN010 OVC015
     FM162300 31016G25KT P6SM SCT010 OVC015
     FM170100 30015G22KT P6SM OVC020
     FM171200 29012G17KT P6SM BKN025=

USA.gov is the U.S. government's official web portal to all federal, state and local government web resources and services.